Time;durP1;ratioP1;P1;durP2;ratioP2;P2;SDS_P1;SDS_P2;PMS_P1;PMS_P2;Temp;Humidity;BMP_temperature;BMP_pressure;BME280_temperature;BME280_humidity;BME280_pressure;Samples;Min_cycle;Max_cycle;Signal;HPM_P1;HPM_P2
2023/04/10 00:01:49;;;;;;;43.70;26.60;;;8.20;99.90;;;;;;5056407;28;20065;-86
2023/04/10 00:04:15;;;;;;;43.55;27.90;;;8.20;99.90;;;;;;5056049;28;20056;-86
2023/04/10 00:06:41;;;;;;;46.38;28.23;;;8.20;99.90;;;;;;5053011;28;20048;-80
2023/04/10 00:09:07;;;;;;;43.67;28.55;;;8.20;99.90;;;;;;5052451;28;20119;-85
2023/04/10 00:11:33;;;;;;;42.92;28.15;;;8.20;99.90;;;;;;5051267;28;20060;-82
2023/04/10 00:13:59;;;;;;;48.30;29.38;;;8.20;99.90;;;;;;5052186;28;20400;-74
2023/04/10 00:16:25;;;;;;;47.80;29.73;;;8.50;99.90;;;;;;5052371;28;20045;-75
2023/04/10 00:18:50;;;;;;;48.15;30.80;;;8.40;99.90;;;;;;5052342;28;20133;-74
2023/04/10 00:21:16;;;;;;;44.65;28.77;;;8.20;99.90;;;;;;5052081;28;20476;-74
2023/04/10 00:23:42;;;;;;;48.05;30.50;;;8.10;99.90;;;;;;5051912;28;20052;-73
2023/04/10 00:26:08;;;;;;;46.90;30.48;;;8.10;99.90;;;;;;5052186;28;20123;-72
2023/04/10 00:28:36;;;;;;;48.63;29.73;;;8.10;99.90;;;;;;5052227;28;20049;-73
2023/04/10 00:31:05;;;;;;;46.53;30.30;;;8.10;99.90;;;;;;5050775;28;20403;-73
2023/04/10 00:33:31;;;;;;;45.63;29.38;;;8.10;99.90;;;;;;5051872;28;20047;-73
2023/04/10 00:35:57;;;;;;;46.72;30.38;;;8.10;99.90;;;;;;5051214;28;20049;-73
2023/04/10 00:38:23;;;;;;;47.25;30.35;;;8.10;99.90;;;;;;5052385;28;20508;-76
2023/04/10 00:40:48;;;;;;;46.97;31.77;;;8.00;99.90;;;;;;5051705;28;20048;-74
2023/04/10 00:43:15;;;;;;;48.00;30.88;;;8.00;99.90;;;;;;5050112;28;20057;-72
2023/04/10 00:45:41;;;;;;;46.40;30.80;;;8.00;99.90;;;;;;5051099;28;20127;-72
2023/04/10 00:48:06;;;;;;;45.72;31.08;;;8.10;99.90;;;;;;5049116;28;20262;-75
2023/04/10 00:50:32;;;;;;;47.97;31.45;;;8.00;99.90;;;;;;5049909;28;20835;-73
2023/04/10 00:52:58;;;;;;;48.70;31.65;;;7.90;99.90;;;;;;5051243;28;20059;-72
2023/04/10 00:55:25;;;;;;;47.90;30.45;;;7.90;99.90;;;;;;5050996;28;20037;-76
2023/04/10 00:57:51;;;;;;;51.05;33.00;;;7.90;99.90;;;;;;5049523;28;20053;-72
2023/04/10 01:00:16;;;;;;;49.72;32.67;;;7.90;99.90;;;;;;5050530;28;20160;-73
2023/04/10 01:02:42;;;;;;;50.17;31.83;;;8.40;99.90;;;;;;5069304;28;20424;-73
2023/04/10 01:05:11;;;;;;;52.35;33.55;;;7.80;99.90;;;;;;5068897;28;20450;-72
2023/04/10 01:08:01;;;;;;;49.03;32.45;;;7.80;99.90;;;;;;5069270;28;20539;-72
2023/04/10 01:10:55;;;;;;;51.50;33.88;;;7.70;99.90;;;;;;5069479;28;20059;-74
2023/04/10 01:13:44;;;;;;;54.40;34.65;;;8.00;99.90;;;;;;5069401;28;20467;-78
2023/04/10 01:16:14;;;;;;;51.78;32.78;;;7.60;99.90;;;;;;5069441;28;20048;-78
2023/04/10 01:19:23;;;;;;;55.47;37.17;;;7.70;99.90;;;;;;5051416;28;20128;-75
2023/04/10 01:21:50;;;;;;;52.42;34.88;;;7.50;99.90;;;;;;4969712;28;20234;-79
2023/04/10 01:24:30;;;;;;;55.67;36.33;;;7.50;99.90;;;;;;4969953;28;20051;-73
2023/04/10 01:27:15;;;;;;;54.90;36.53;;;7.50;99.90;;;;;;4953409;28;20085;-77
2023/04/10 01:29:48;;;;;;;58.07;36.70;;;7.40;99.90;;;;;;4975874;28;20144;-75
2023/04/10 01:32:19;;;;;;;62.13;37.30;;;7.40;99.90;;;;;;4988458;28;20137;-80
2023/04/10 01:34:49;;;;;;;55.35;36.22;;;7.40;99.90;;;;;;4988628;28;20051;-83
2023/04/10 01:37:29;;;;;;;56.45;36.10;;;7.50;99.90;;;;;;4956662;28;20050;-82
2023/04/10 01:40:00;;;;;;;56.85;37.63;;;7.30;99.90;;;;;;4972447;28;20093;-82
2023/04/10 01:42:29;;;;;;;64.22;39.78;;;7.50;99.90;;;;;;4988429;28;20050;-77
2023/04/10 01:44:57;;;;;;;61.35;38.83;;;7.30;99.90;;;;;;4972100;28;20058;-80
2023/04/10 01:47:25;;;;;;;61.78;39.28;;;7.50;99.90;;;;;;4988034;28;20081;-74
2023/04/10 01:49:51;;;;;;;64.80;41.33;;;7.20;99.90;;;;;;4988137;28;20045;-73
2023/04/10 01:52:19;;;;;;;68.25;42.65;;;7.20;99.90;;;;;;4988401;28;20058;-73
2023/04/10 01:54:47;;;;;;;63.50;39.67;;;7.20;99.90;;;;;;4988418;28;20058;-76
2023/04/10 01:57:15;;;;;;;66.55;41.03;;;7.20;99.90;;;;;;4971858;28;20058;-77
2023/04/10 01:59:41;;;;;;;68.18;41.53;;;7.50;99.90;;;;;;5036196;28;20060;-79
2023/04/10 02:02:07;;;;;;;67.13;44.15;;;7.10;99.90;;;;;;5063384;28;20068;-72
2023/04/10 02:04:33;;;;;;;67.72;42.47;;;7.10;99.90;;;;;;5069761;28;20052;-79
2023/04/10 02:07:14;;;;;;;69.22;42.80;;;7.10;99.90;;;;;;5070439;28;20041;-77
2023/04/10 02:10:09;;;;;;;69.60;43.40;;;7.00;99.90;;;;;;5070562;28;20074;-76
2023/04/10 02:12:45;;;;;;;67.75;43.88;;;7.00;99.90;;;;;;5070083;28;20044;-74
2023/04/10 02:15:11;;;;;;;71.13;43.38;;;7.00;99.90;;;;;;5054607;28;20123;-75
2023/04/10 02:17:38;;;;;;;66.22;43.47;;;7.00;99.90;;;;;;5061693;28;20574;-73
2023/04/10 02:20:06;;;;;;;67.38;43.30;;;7.00;99.90;;;;;;5070299;28;20060;-71
2023/04/10 02:22:33;;;;;;;73.75;43.42;;;6.90;99.90;;;;;;5070579;28;20052;-80
2023/04/10 02:24:59;;;;;;;63.47;40.90;;;7.40;99.90;;;;;;5070595;28;20395;-75
2023/04/10 02:27:30;;;;;;;68.32;44.60;;;6.90;99.90;;;;;;5070557;28;20053;-73
2023/04/10 02:29:56;;;;;;;73.88;44.22;;;6.90;99.90;;;;;;5050713;28;20511;-73
2023/04/10 02:32:22;;;;;;;70.15;43.63;;;6.90;99.90;;;;;;5049741;28;20033;-72
2023/04/10 02:34:48;;;;;;;71.07;42.75;;;6.90;99.90;;;;;;5049527;28;20041;-81
2023/04/10 02:37:13;;;;;;;71.35;44.30;;;6.90;99.90;;;;;;5047985;28;20376;-83
2023/04/10 02:39:40;;;;;;;67.53;44.40;;;7.30;99.90;;;;;;5049359;28;20047;-75
2023/04/10 02:42:06;;;;;;;64.72;43.67;;;6.90;99.90;;;;;;5054154;28;20056;-72
2023/04/10 02:44:31;;;;;;;69.43;44.10;;;6.90;99.90;;;;;;5067882;28;20037;-77
2023/04/10 02:46:57;;;;;;;69.95;44.45;;;6.90;99.90;;;;;;5067539;28;20181;-78
2023/04/10 02:49:23;;;;;;;67.82;42.58;;;6.80;99.90;;;;;;5069324;28;20048;-74
2023/04/10 02:51:48;;;;;;;69.22;43.30;;;7.10;99.90;;;;;;5069444;28;20041;-77
2023/04/10 02:54:14;;;;;;;64.43;42.88;;;6.80;99.90;;;;;;5068079;28;20056;-72
2023/04/10 02:56:40;;;;;;;68.93;44.15;;;6.90;99.90;;;;;;5068316;28;20040;-72
2023/04/10 02:59:05;;;;;;;68.45;43.10;;;7.00;99.90;;;;;;5069003;28;20049;-73
2023/04/10 03:01:31;;;;;;;67.43;43.53;;;6.80;99.90;;;;;;5053552;28;20404;-72
2023/04/10 03:03:57;;;;;;;70.47;43.63;;;6.80;99.90;;;;;;5048844;28;20115;-75
2023/04/10 03:06:26;;;;;;;67.78;44.35;;;6.80;99.90;;;;;;5048651;28;20052;-72
2023/04/10 03:08:52;;;;;;;72.60;42.42;;;6.70;99.90;;;;;;5049027;28;20052;-85
2023/04/10 03:11:17;;;;;;;69.57;44.40;;;6.80;99.90;;;;;;5053561;28;20436;-83
2023/04/10 03:13:43;;;;;;;72.00;44.42;;;6.80;99.90;;;;;;5054317;28;20143;-75
2023/04/10 03:16:09;;;;;;;67.65;43.45;;;6.80;99.90;;;;;;5053318;28;20049;-73
2023/04/10 03:18:35;;;;;;;66.47;43.10;;;6.80;99.90;;;;;;5052625;28;20056;-79
2023/04/10 03:21:01;;;;;;;68.03;43.63;;;6.80;99.90;;;;;;5052689;28;20508;-74
2023/04/10 03:23:27;;;;;;;64.45;42.35;;;6.80;99.90;;;;;;5052850;28;20045;-72
2023/04/10 03:25:53;;;;;;;67.10;42.38;;;6.80;99.90;;;;;;5063447;28;20476;-72
2023/04/10 03:28:19;;;;;;;65.43;42.35;;;7.20;99.90;;;;;;5072957;28;20052;-73
2023/04/10 03:30:45;;;;;;;69.28;41.33;;;6.80;99.90;;;;;;5071356;28;20059;-72
2023/04/10 03:33:11;;;;;;;63.15;40.55;;;6.80;99.90;;;;;;5072730;28;20059;-72
2023/04/10 03:35:36;;;;;;;71.00;42.58;;;6.80;99.90;;;;;;5072360;28;20040;-72
2023/04/10 03:38:02;;;;;;;75.03;45.13;;;6.80;99.90;;;;;;5071403;28;20057;-72
2023/04/10 03:40:28;;;;;;;64.90;41.75;;;6.80;99.90;;;;;;5053834;28;20076;-72
2023/04/10 03:42:53;;;;;;;68.22;42.20;;;6.80;99.90;;;;;;5057344;28;20075;-72
2023/04/10 03:45:19;;;;;;;68.78;41.85;;;6.80;99.90;;;;;;5052544;28;20048;-72
2023/04/10 03:47:45;;;;;;;65.50;40.63;;;7.10;99.90;;;;;;5052445;28;20519;-71
2023/04/10 03:50:11;;;;;;;66.00;41.88;;;6.70;99.90;;;;;;5052339;28;20044;-72
2023/04/10 03:52:37;;;;;;;61.63;40.22;;;6.70;99.90;;;;;;5052599;28;20458;-73
2023/04/10 03:55:02;;;;;;;70.32;43.90;;;6.70;99.90;;;;;;5056378;28;20151;-73
2023/04/10 03:57:28;;;;;;;68.97;43.28;;;6.70;99.90;;;;;;5061122;28;20067;-75
2023/04/10 03:59:54;;;;;;;63.53;42.63;;;7.10;99.90;;;;;;5052648;28;20049;-72
2023/04/10 04:02:19;;;;;;;66.70;42.58;;;6.60;99.90;;;;;;5068951;28;20056;-72
2023/04/10 04:04:45;;;;;;;66.07;42.53;;;6.60;99.90;;;;;;5072266;28;20201;-73
2023/04/10 04:07:12;;;;;;;65.75;40.92;;;6.60;99.90;;;;;;5072090;28;20052;-72
2023/04/10 04:09:39;;;;;;;66.10;42.13;;;6.60;99.90;;;;;;5072305;28;20495;-74
2023/04/10 04:12:06;;;;;;;63.15;42.13;;;6.70;99.90;;;;;;5070673;28;20055;-71
2023/04/10 04:14:32;;;;;;;63.60;41.40;;;6.60;99.90;;;;;;5059815;28;20044;-72
2023/04/10 04:16:57;;;;;;;70.03;42.28;;;6.60;99.90;;;;;;5050641;28;20130;-72
2023/04/10 04:19:23;;;;;;;67.57;42.60;;;6.60;99.90;;;;;;5051770;28;20052;-72
2023/04/10 04:21:49;;;;;;;67.90;41.80;;;6.50;99.90;;;;;;5051529;28;20052;-76
2023/04/10 04:24:14;;;;;;;66.10;41.47;;;6.60;99.90;;;;;;5052913;28;20045;-71
2023/04/10 04:26:40;;;;;;;64.68;41.13;;;6.80;99.90;;;;;;5053994;28;20053;-73
2023/04/10 04:29:05;;;;;;;65.32;42.13;;;6.60;99.90;;;;;;5053665;28;20041;-76
2023/04/10 04:31:31;;;;;;;68.35;42.45;;;6.60;99.90;;;;;;5055482;28;20052;-76
2023/04/10 04:33:58;;;;;;;66.97;43.00;;;6.60;99.90;;;;;;5054681;28;20049;-74
2023/04/10 04:36:23;;;;;;;69.65;40.78;;;6.60;99.90;;;;;;5054964;28;20163;-73
2023/04/10 04:38:49;;;;;;;63.47;40.67;;;6.60;99.90;;;;;;5053348;28;20127;-73
2023/04/10 04:41:15;;;;;;;68.65;42.08;;;6.60;99.90;;;;;;5052710;28;20514;-73
2023/04/10 04:43:40;;;;;;;62.33;41.25;;;6.60;99.90;;;;;;5052547;28;20490;-72
2023/04/10 04:46:06;;;;;;;64.60;40.97;;;6.70;99.90;;;;;;5051265;28;20044;-79
2023/04/10 04:48:33;;;;;;;64.72;42.03;;;6.70;99.90;;;;;;5051405;28;20049;-76
2023/04/10 04:50:59;;;;;;;61.85;41.03;;;6.70;99.90;;;;;;5052117;28;20045;-78
2023/04/10 04:53:25;;;;;;;66.28;42.80;;;6.70;99.90;;;;;;5051211;28;20099;-72
2023/04/10 04:55:51;;;;;;;64.55;41.70;;;7.10;99.90;;;;;;5050853;28;20045;-72
2023/04/10 04:58:16;;;;;;;63.47;41.08;;;6.70;99.90;;;;;;5049399;28;20053;-72
2023/04/10 05:00:42;;;;;;;62.30;40.20;;;6.70;99.90;;;;;;5049375;28;20053;-72
2023/04/10 05:03:07;;;;;;;62.45;39.53;;;6.80;99.90;;;;;;5052002;28;20475;-72
2023/04/10 05:05:33;;;;;;;60.92;38.22;;;6.80;99.90;;;;;;5051029;28;20515;-73
2023/04/10 05:07:59;;;;;;;62.42;38.10;;;7.30;99.90;;;;;;5050695;28;20439;-72
2023/04/10 05:10:24;;;;;;;62.45;38.78;;;6.90;99.90;;;;;;5051046;28;20045;-73
2023/04/10 05:12:50;;;;;;;58.00;38.55;;;6.90;99.90;;;;;;5055183;28;20060;-73
2023/04/10 05:15:16;;;;;;;56.17;36.35;;;7.00;99.90;;;;;;5059356;28;20044;-76
2023/04/10 05:17:41;;;;;;;57.35;37.13;;;7.00;99.90;;;;;;5069616;28;20403;-72
2023/04/10 05:20:08;;;;;;;55.35;37.00;;;7.50;99.90;;;;;;5070479;28;20448;-73
2023/04/10 05:22:34;;;;;;;58.60;36.65;;;7.10;99.90;;;;;;5070383;28;20491;-73
2023/04/10 05:25:00;;;;;;;57.30;36.33;;;7.10;99.90;;;;;;5070690;28;20043;-74
2023/04/10 05:27:25;;;;;;;56.78;36.70;;;7.20;99.90;;;;;;5054717;28;20087;-75
2023/04/10 05:29:51;;;;;;;55.00;36.10;;;7.20;99.90;;;;;;5049595;28;20048;-76
2023/04/10 05:32:17;;;;;;;54.03;35.58;;;7.20;99.90;;;;;;5050745;28;20408;-75
2023/04/10 05:34:42;;;;;;;58.72;36.40;;;7.30;99.90;;;;;;5051718;28;20130;-73
2023/04/10 05:37:10;;;;;;;56.08;35.22;;;7.30;99.90;;;;;;5050263;28;20045;-73
2023/04/10 05:39:36;;;;;;;58.15;35.92;;;7.80;99.90;;;;;;5050342;28;20041;-77
2023/04/10 05:42:02;;;;;;;52.97;34.25;;;7.40;99.90;;;;;;5048601;28;20041;-71
2023/04/10 05:44:28;;;;;;;55.30;35.97;;;7.70;99.90;;;;;;5053409;28;20049;-75
2023/04/10 05:46:53;;;;;;;56.22;34.55;;;7.40;99.90;;;;;;5050386;28;20058;-76
2023/04/10 05:49:19;;;;;;;52.80;34.88;;;7.50;99.90;;;;;;5050212;28;20049;-78
2023/04/10 05:51:49;;;;;;;53.03;35.67;;;7.50;99.90;;;;;;5048852;28;20094;-88
2023/04/10 05:54:15;;;;;;;55.65;35.15;;;7.70;99.90;;;;;;5049448;28;20123;-83
2023/04/10 05:56:41;;;;;;;54.72;35.28;;;7.80;99.90;;;;;;5051287;28;20376;-85
2023/04/10 05:59:06;;;;;;;55.63;34.80;;;7.60;99.90;;;;;;5070059;28;20041;-78
2023/04/10 06:01:32;;;;;;;53.28;36.10;;;7.60;99.90;;;;;;5070316;28;20530;-89
2023/04/10 06:03:58;;;;;;;56.75;36.00;;;8.00;99.90;;;;;;5069336;28;20803;-87
2023/04/10 06:06:25;;;;;;;57.05;35.38;;;7.70;99.90;;;;;;5068825;28;20053;-85
2023/04/10 06:08:51;;;;;;;51.35;33.58;;;7.70;99.90;;;;;;5070007;28;20045;-87
2023/04/10 06:11:17;;;;;;;54.92;34.80;;;7.70;99.90;;;;;;5070287;28;20044;-89
2023/04/10 06:13:43;;;;;;;57.92;34.00;;;8.20;99.90;;;;;;5054972;28;20049;-79
2023/04/10 06:16:08;;;;;;;54.30;34.05;;;7.80;99.90;;;;;;5050231;28;20392;-82
2023/04/10 06:18:34;;;;;;;55.72;34.08;;;7.80;99.90;;;;;;5050518;28;20044;-83
2023/04/10 06:21:03;;;;;;;49.72;32.40;;;7.80;99.90;;;;;;5050538;28;20188;-76
2023/04/10 06:23:29;;;;;;;51.83;33.45;;;7.90;99.90;;;;;;5049951;28;20127;-87
2023/04/10 06:25:55;;;;;;;50.90;31.88;;;8.00;99.90;;;;;;5049966;28;20127;-78
2023/04/10 06:28:21;;;;;;;48.47;31.60;;;8.00;99.90;;;;;;5049335;28;20037;-77
2023/04/10 06:30:46;;;;;;;49.38;31.55;;;8.10;99.90;;;;;;5067862;28;20052;-73
2023/04/10 06:33:12;;;;;;;49.50;31.25;;;8.10;99.90;;;;;;5069888;28;20047;-73
2023/04/10 06:35:37;;;;;;;49.40;31.40;;;8.10;99.90;;;;;;5068482;28;20587;-73
2023/04/10 06:38:03;;;;;;;46.95;29.63;;;8.20;99.90;;;;;;5067720;28;20055;-77
2023/04/10 06:40:29;;;;;;;44.70;30.13;;;8.20;99.90;;;;;;5068614;28;20048;-72
2023/04/10 06:42:56;;;;;;;51.33;32.03;;;8.30;99.90;;;;;;5062624;28;20041;-72
2023/04/10 06:45:22;;;;;;;44.25;29.40;;;8.40;99.90;;;;;;5049630;28;20045;-72
2023/04/10 06:47:47;;;;;;;46.42;29.42;;;8.40;99.90;;;;;;5050032;28;20053;-73
2023/04/10 06:50:13;;;;;;;46.08;29.63;;;9.00;99.90;;;;;;5049776;28;20052;-73
2023/04/10 06:52:38;;;;;;;51.72;29.58;;;8.50;99.90;;;;;;5047786;28;20052;-72
2023/04/10 06:55:05;;;;;;;43.40;28.10;;;8.70;99.90;;;;;;5049580;28;20491;-72
2023/04/10 06:57:30;;;;;;;44.83;28.92;;;8.70;99.90;;;;;;5049186;28;20037;-72
2023/04/10 06:59:56;;;;;;;40.63;27.10;;;8.70;99.90;;;;;;5049036;28;20037;-73
2023/04/10 07:02:22;;;;;;;42.92;27.67;;;8.80;99.90;;;;;;5066405;28;20059;-73
2023/04/10 07:04:48;;;;;;;42.38;26.40;;;8.90;99.90;;;;;;5069238;28;20051;-72
2023/04/10 07:07:14;;;;;;;48.20;25.77;;;8.90;99.90;;;;;;5058864;28;20067;-72
2023/04/10 07:09:40;;;;;;;42.92;27.05;;;9.00;99.90;;;;;;5048850;28;20048;-72
2023/04/10 07:12:06;;;;;;;39.97;25.95;;;9.10;99.90;;;;;;5048956;28;20045;-71
2023/04/10 07:14:35;;;;;;;56.50;28.30;;;9.10;99.90;;;;;;5050063;28;20057;-73
2023/04/10 07:17:01;;;;;;;41.90;27.27;;;9.90;99.90;;;;;;5047518;28;20049;-73
2023/04/10 07:19:27;;;;;;;41.70;26.73;;;9.40;99.90;;;;;;5046650;28;20067;-73
2023/04/10 07:21:52;;;;;;;41.70;27.45;;;9.50;99.90;;;;;;5049076;28;20041;-72
2023/04/10 07:24:18;;;;;;;42.10;28.05;;;9.40;99.90;;;;;;5048567;28;20037;-72
2023/04/10 07:26:45;;;;;;;44.75;27.95;;;9.50;99.90;;;;;;5048853;28;20053;-71
2023/04/10 07:29:14;;;;;;;42.97;27.33;;;9.50;99.90;;;;;;5049035;28;20064;-72
2023/04/10 07:31:40;;;;;;;44.35;29.15;;;9.60;99.90;;;;;;5049594;28;20049;-71
2023/04/10 07:34:06;;;;;;;46.83;29.33;;;10.00;99.90;;;;;;5049512;28;20395;-72
2023/04/10 07:36:32;;;;;;;42.88;26.73;;;9.80;99.90;;;;;;5048959;28;20041;-79
2023/04/10 07:38:58;;;;;;;43.72;27.73;;;9.90;99.90;;;;;;5054530;28;20040;-77
2023/04/10 07:41:24;;;;;;;43.13;28.20;;;10.00;99.90;;;;;;5069049;28;20052;-72
2023/04/10 07:43:50;;;;;;;42.88;27.55;;;10.10;99.90;;;;;;5067140;28;20052;-72
2023/04/10 07:46:16;;;;;;;40.60;27.23;;;10.30;99.90;;;;;;5067732;28;20048;-73
2023/04/10 07:48:43;;;;;;;41.53;28.63;;;10.30;99.90;;;;;;5068738;28;20055;-74
2023/04/10 07:51:09;;;;;;;43.00;27.08;;;10.50;99.90;;;;;;5068926;28;20048;-73
2023/04/10 07:53:38;;;;;;;40.45;26.02;;;10.60;99.90;;;;;;5062849;28;20041;-72
2023/04/10 07:56:04;;;;;;;37.78;26.48;;;10.70;99.90;;;;;;5059354;28;20048;-72
2023/04/10 07:58:30;;;;;;;40.30;26.65;;;10.80;99.90;;;;;;5052307;28;20048;-75
2023/04/10 08:00:56;;;;;;;38.10;25.55;;;10.90;99.90;;;;;;5052165;28;20127;-72
2023/04/10 08:03:22;;;;;;;37.28;24.65;;;11.10;99.90;;;;;;5052307;28;20041;-74
2023/04/10 08:05:48;;;;;;;34.53;23.50;;;11.20;99.90;;;;;;5052273;28;20056;-73
2023/04/10 08:08:17;;;;;;;38.22;24.88;;;11.30;99.90;;;;;;5050529;28;20102;-73
2023/04/10 08:10:43;;;;;;;35.88;23.42;;;11.40;99.90;;;;;;5052267;28;20396;-74
2023/04/10 08:13:08;;;;;;;33.17;22.95;;;11.50;99.90;;;;;;5060274;28;20051;-76
2023/04/10 08:15:34;;;;;;;35.97;24.77;;;11.60;99.90;;;;;;5072564;28;20036;-72
2023/04/10 08:18:00;;;;;;;34.20;24.15;;;11.80;99.90;;;;;;5076890;28;20044;-73
2023/04/10 08:20:26;;;;;;;33.80;21.92;;;11.80;99.90;;;;;;5075560;28;20048;-72
2023/04/10 08:22:53;;;;;;;33.00;22.75;;;12.00;99.90;;;;;;5073280;28;20491;-71
2023/04/10 08:25:19;;;;;;;33.88;22.33;;;12.10;99.90;;;;;;5072167;28;20107;-76
2023/04/10 08:27:44;;;;;;;37.20;22.50;;;12.20;99.90;;;;;;5073260;28;20060;-73
2023/04/10 08:30:10;;;;;;;32.53;22.35;;;12.40;99.90;;;;;;5072625;28;20036;-72
2023/04/10 08:32:37;;;;;;;35.40;23.05;;;12.50;99.90;;;;;;5075101;28;20656;-80
2023/04/10 08:35:03;;;;;;;31.23;20.73;;;12.70;99.90;;;;;;5071144;28;20075;-71
2023/04/10 08:37:29;;;;;;;35.75;22.33;;;12.80;99.90;;;;;;5069994;28;20052;-73
2023/04/10 08:39:54;;;;;;;29.52;19.38;;;13.00;99.90;;;;;;5062355;28;20053;-73
2023/04/10 08:42:21;;;;;;;28.25;19.20;;;13.00;99.90;;;;;;5053373;28;20072;-71
2023/04/10 08:44:48;;;;;;;27.60;19.08;;;13.10;99.90;;;;;;5071710;28;20052;-73
2023/04/10 08:47:14;;;;;;;28.30;18.85;;;13.20;99.90;;;;;;5069791;28;20131;-71
2023/04/10 08:49:55;;;;;;;28.13;19.20;;;13.30;99.90;;;;;;5071249;28;20044;-71
2023/04/10 08:52:26;;;;;;;24.73;17.50;;;13.50;99.90;;;;;;5071044;28;20476;-72
2023/04/10 08:54:57;;;;;;;27.40;18.40;;;13.70;99.90;;;;;;5070903;28;20500;-74
2023/04/10 08:57:23;;;;;;;27.73;18.95;;;13.80;99.90;;;;;;5070631;28;20131;-73
2023/04/10 08:59:50;;;;;;;26.77;18.65;;;13.70;99.90;;;;;;5071001;28;20060;-74
2023/04/10 09:02:17;;;;;;;26.15;18.35;;;13.80;99.90;;;;;;5070667;28;20049;-71
2023/04/10 09:04:51;;;;;;;24.65;17.20;;;13.90;99.90;;;;;;5070811;28;20103;-72
2023/04/10 09:07:17;;;;;;;25.15;17.30;;;14.10;99.90;;;;;;5069563;28;20438;-75
2023/04/10 09:09:43;;;;;;;26.40;18.58;;;14.10;99.90;;;;;;5071372;28;20052;-82
2023/04/10 09:12:09;;;;;;;29.80;18.50;;;14.30;99.90;;;;;;5071006;28;20098;-82
2023/04/10 09:14:35;;;;;;;28.08;18.33;;;14.40;99.90;;;;;;5062175;28;20120;-78
2023/04/10 09:17:22;;;;;;;26.42;17.67;;;14.50;99.90;;;;;;5049418;28;20084;-76
2023/04/10 09:19:51;;;;;;;27.02;17.98;;;14.50;99.90;;;;;;5051241;28;20442;-80
2023/04/10 09:22:18;;;;;;;29.90;18.15;;;14.50;99.90;;;;;;5050755;28;20041;-74
2023/04/10 09:24:46;;;;;;;23.90;16.77;;;14.50;99.90;;;;;;5050502;28;20047;-76
2023/04/10 09:27:31;;;;;;;21.90;15.73;;;14.50;99.90;;;;;;5050779;28;20041;-72
2023/04/10 09:29:57;;;;;;;22.33;14.63;;;14.60;99.90;;;;;;5050561;28;20152;-70
2023/04/10 09:32:42;;;;;;;20.33;14.68;;;14.70;99.90;;;;;;5050330;28;20080;-72
2023/04/10 09:35:13;;;;;;;21.73;15.20;;;14.90;99.90;;;;;;5050302;28;20033;-73
2023/04/10 09:37:40;;;;;;;21.73;14.90;;;15.00;99.90;;;;;;5050605;28;20108;-72
2023/04/10 09:40:25;;;;;;;19.98;13.70;;;15.10;99.90;;;;;;5050127;28;20071;-73
2023/04/10 09:42:51;;;;;;;;;;;15.10;99.90;;;;;;5050787;28;20195;-73
2023/04/10 09:45:21;;;;;;;18.10;13.23;;;15.10;99.90;;;;;;5051299;28;19924;-72
2023/04/10 09:48:06;;;;;;;17.70;13.18;;;15.10;99.90;;;;;;5049972;28;20048;-73
2023/04/10 09:50:39;;;;;;;17.77;12.77;;;15.10;99.90;;;;;;5048796;28;20476;-73
2023/04/10 09:53:06;;;;;;;16.95;11.90;;;15.20;99.90;;;;;;5049707;28;20404;-72
2023/04/10 09:55:35;;;;;;;14.63;11.20;;;15.10;99.90;;;;;;5048532;28;20530;-73
2023/04/10 09:58:02;;;;;;;15.05;10.98;;;15.20;99.90;;;;;;5049881;28;20067;-73
2023/04/10 10:00:28;;;;;;;15.50;11.02;;;15.20;99.90;;;;;;5048344;28;20056;-77
2023/04/10 10:02:56;;;;;;;14.55;10.95;;;15.20;99.90;;;;;;5049580;28;20053;-75
2023/04/10 10:05:26;;;;;;;16.92;11.32;;;15.30;99.90;;;;;;5055933;28;20056;-76
2023/04/10 10:07:53;;;;;;;14.65;10.48;;;15.30;99.90;;;;;;5069854;28;20182;-74
2023/04/10 10:10:19;;;;;;;16.23;11.23;;;15.40;99.90;;;;;;5069819;28;20086;-79
2023/04/10 10:12:56;;;;;;;15.40;10.15;;;15.50;99.90;;;;;;5069850;28;20487;-73
2023/04/10 10:15:39;;;;;;;13.65;9.20;;;15.50;99.50;;;;;;5059908;28;20076;-73
2023/04/10 10:18:08;;;;;;;12.80;9.40;;;15.40;99.50;;;;;;5055752;28;20033;-75
2023/04/10 10:20:35;;;;;;;13.75;9.10;;;15.60;99.90;;;;;;5067175;28;20040;-75
2023/04/10 10:23:06;;;;;;;13.60;9.80;;;15.60;99.90;;;;;;5069531;28;20048;-83
2023/04/10 10:25:34;;;;;;;14.95;8.88;;;15.70;99.90;;;;;;5065294;28;20404;-73
2023/04/10 10:28:03;;;;;;;12.07;9.23;;;15.60;98.90;;;;;;5056034;28;20119;-77
2023/04/10 10:30:36;;;;;;;12.18;8.82;;;15.50;99.30;;;;;;5049920;28;20049;-74
2023/04/10 10:33:06;;;;;;;14.65;9.63;;;15.40;99.30;;;;;;5048576;28;20051;-75
2023/04/10 10:35:36;;;;;;;11.85;8.60;;;15.30;98.70;;;;;;5049351;28;20044;-74
2023/04/10 10:38:03;;;;;;;11.73;8.68;;;15.30;99.60;;;;;;5049753;28;20369;-84
2023/04/10 10:40:53;;;;;;;11.65;8.90;;;15.20;99.50;;;;;;5066465;28;20048;-77
2023/04/10 10:44:00;;;;;;;13.40;9.02;;;15.20;99.60;;;;;;5069715;28;20060;-82
2023/04/10 10:46:39;;;;;;;11.80;8.68;;;15.00;98.60;;;;;;5027114;28;20405;-78
2023/04/10 10:49:05;;;;;;;12.10;8.80;;;15.00;99.20;;;;;;5027034;28;20479;-78
2023/04/10 10:51:47;;;;;;;12.38;8.68;;;15.00;99.50;;;;;;5010510;28;20120;-73
2023/04/10 10:54:45;;;;;;;10.32;7.97;;;15.00;98.60;;;;;;5026782;28;20041;-80
2023/04/10 10:58:00;;;;;;;12.77;8.00;;;14.90;99.00;;;;;;4987476;28;20046;-73
2023/04/10 11:00:50;;;;;;;10.48;8.38;;;15.00;99.20;;;;;;4937530;28;20498;-76
2023/04/10 11:03:15;;;;;;;11.13;8.02;;;15.10;99.20;;;;;;4968258;28;20061;-73
2023/04/10 11:06:01;;;;;;;10.77;8.05;;;15.20;99.70;;;;;;4968716;28;20629;-73
2023/04/10 11:08:42;;;;;;;11.85;7.97;;;15.20;99.20;;;;;;4955074;28;20051;-73
2023/04/10 11:11:26;;;;;;;10.48;7.35;;;15.20;99.00;;;;;;4967309;28;20085;-73
2023/04/10 11:13:51;;;;;;;9.77;7.30;;;15.20;98.80;;;;;;4960474;28;20117;-73
2023/04/10 11:16:18;;;;;;;11.68;8.10;;;15.30;99.40;;;;;;4943625;28;20060;-83
2023/04/10 11:18:47;;;;;;;12.10;8.20;;;15.30;99.10;;;;;;4904246;29;20056;-72
2023/04/10 11:21:15;;;;;;;9.85;7.03;;;15.30;99.60;;;;;;4921499;29;20138;-73
2023/04/10 11:24:04;;;;;;;11.98;7.38;;;15.20;98.90;;;;;;4929822;29;20060;-73
2023/04/10 11:29:02;;;;;;;11.05;6.53;;;15.40;99.20;;;;;;4968244;28;20198;-73
2023/04/10 11:31:28;;;;;;;9.88;6.13;;;15.30;99.10;;;;;;4966426;28;20070;-78
2023/04/10 11:33:56;;;;;;;9.27;6.55;;;15.30;99.10;;;;;;4978035;28;20080;-72
2023/04/10 11:36:22;;;;;;;9.40;6.43;;;15.40;99.10;;;;;;4989771;28;20068;-73
2023/04/10 11:38:58;;;;;;;9.23;6.07;;;15.40;98.80;;;;;;5043944;28;20255;-74
2023/04/10 11:41:31;;;;;;;8.60;6.07;;;15.40;98.40;;;;;;5038467;28;20127;-72
2023/04/10 11:43:57;;;;;;;8.65;5.80;;;15.40;98.90;;;;;;5029661;28;20128;-73
2023/04/10 11:46:23;;;;;;;10.45;6.38;;;15.40;98.90;;;;;;5040444;28;20060;-71
2023/04/10 11:49:00;;;;;;;11.55;6.03;;;15.50;98.60;;;;;;5049959;28;20053;-76
2023/04/10 11:51:29;;;;;;;8.13;5.47;;;15.60;98.70;;;;;;5043106;28;20531;-74
2023/04/10 11:54:13;;;;;;;8.68;5.60;;;15.70;98.80;;;;;;5033479;28;20049;-74
2023/04/10 11:56:41;;;;;;;10.40;5.35;;;15.90;98.40;;;;;;5050041;28;20068;-74
2023/04/10 11:59:12;;;;;;;8.70;5.57;;;16.00;98.90;;;;;;5035345;28;20194;-74
2023/04/10 12:01:41;;;;;;;6.50;4.75;;;15.90;98.30;;;;;;5035874;28;20053;-74
2023/04/10 12:04:17;;;;;;;7.15;4.93;;;16.00;98.30;;;;;;5055278;28;20060;-76
2023/04/10 12:06:47;;;;;;;8.48;4.97;;;16.20;98.30;;;;;;5065082;28;20045;-79
2023/04/10 12:09:16;;;;;;;7.15;4.88;;;16.30;98.10;;;;;;5057210;28;20466;-72
2023/04/10 12:11:51;;;;;;;6.78;4.78;;;16.50;98.10;;;;;;5071279;28;20387;-73
2023/04/10 12:14:22;;;;;;;6.28;4.38;;;16.70;97.70;;;;;;5082212;28;20041;-86
2023/04/10 12:16:49;;;;;;;6.95;4.43;;;16.70;97.50;;;;;;5083145;28;20041;-86
2023/04/10 12:19:16;;;;;;;8.45;4.70;;;16.90;97.80;;;;;;5079394;28;20051;-84
2023/04/10 12:21:43;;;;;;;6.03;4.28;;;16.90;97.40;;;;;;5075392;28;20507;-82
2023/04/10 12:24:10;;;;;;;7.55;4.43;;;16.90;97.70;;;;;;5073179;28;20048;-82
2023/04/10 12:26:35;;;;;;;8.18;4.50;;;16.80;96.50;;;;;;5072378;28;20125;-80
2023/04/10 12:29:01;;;;;;;7.15;4.60;;;16.80;96.70;;;;;;5070217;28;20084;-79
2023/04/10 12:31:27;;;;;;;6.78;4.90;;;16.60;97.10;;;;;;5068685;28;20506;-73
2023/04/10 12:33:56;;;;;;;7.47;4.45;;;16.50;96.70;;;;;;5070429;28;20476;-73
2023/04/10 12:36:25;;;;;;;6.55;4.45;;;16.50;96.40;;;;;;5070573;28;20364;-82
2023/04/10 12:38:51;;;;;;;6.35;4.38;;;16.50;96.60;;;;;;5071914;28;20113;-81
2023/04/10 12:41:25;;;;;;;6.90;4.22;;;16.40;97.50;;;;;;5071364;28;20040;-74
2023/04/10 12:43:52;;;;;;;6.72;4.90;;;16.40;97.40;;;;;;5070581;28;20052;-72
2023/04/10 12:46:26;;;;;;;6.43;4.30;;;16.30;97.70;;;;;;5066236;28;20028;-72